Latest Weather Observations for Onslow Airport

IDW60801

Issued at 11:33 pm WST Saturday 25 April 2015 (issued every 30 minutes, with the page automatically refreshed every 10 minutes)

About weather observations | Map of weather stations | Latest weather observations for WA | Other Formats
Station Details ID: 005017 Name: ONSLOW AIRPORT Lat: -21.67 Lon: 115.11 Height: 10.5 m
Data from the previous 72 hours. | See also: Recent months at Onslow Airport
Date/Time
WST
Temp
°C
App
Temp
°C
Dew
Point
Rel
Hum
%
Delta-T
°C
Wind Press
QNH
hPa
Press
MSL
hPa
Rain
since 9 am
mm
Dir
 
Spd
km/h
Gust
km/h
Spd
kts
Gust
kts
25/11:30pm 25.0 25.7 18.9 69 3.9 ESE 13 15 7 8 1015.3 1015.3 0.0
25/11:00pm 24.7 27.2 21.0 80 2.4 E 9 11 5 6 1015.2 1015.2 0.0
25/10:30pm 24.8 26.2 19.6 73 3.3 NE 11 13 6 7 1015.0 1015.0 0.0
25/10:00pm 25.5 26.5 20.3 73 3.4 NE 15 19 8 10 1015.0 1015.0 0.0
25/09:30pm 25.6 26.4 19.9 70 3.7 NE 15 20 8 11 1015.0 1015.0 0.0
25/09:00pm 25.7 26.0 20.3 72 3.5 NNE 19 22 10 12 1015.0 1015.0 0.0
25/08:30pm 25.8 26.0 20.1 71 3.7 NNE 19 22 10 12 1014.8 1014.8 0.0
25/08:00pm 25.9 26.3 19.8 69 4.0 NNE 17 20 9 11 1014.4 1014.4 0.0
25/07:30pm 25.9 26.2 19.5 68 4.1 NNE 17 22 9 12 1014.0 1014.0 0.0
25/07:00pm 25.8 26.0 19.4 67 4.1 NNE 17 20 9 11 1013.6 1013.6 0.0
25/06:30pm 26.3 25.9 18.9 63 4.7 NNE 19 24 10 13 1013.3 1013.3 0.0
25/06:00pm 26.5 26.1 18.9 63 4.9 NNE 19 24 10 13 1013.1 1013.1 0.0
25/05:30pm 27.0 26.3 18.3 59 5.5 NNE 19 28 10 15 1012.8 1012.8 0.0
25/05:00pm 27.1 26.2 18.1 58 5.7 NNE 20 26 11 14 1012.8 1012.8 0.0
25/04:30pm 27.6 26.5 17.7 54 6.3 NNE 20 28 11 15 1012.6 1012.6 0.0
25/04:00pm 27.9 26.3 18.3 56 6.1 N 24 30 13 16 1012.6 1012.6 0.0
25/03:30pm 28.7 27.0 17.2 49 7.2 NNE 22 28 12 15 1012.4 1012.4 0.0
25/03:00pm 29.4 27.1 16.6 46 8.0 NNE 24 32 13 17 1012.3 1012.3 0.0
25/02:30pm 28.9 27.1 16.1 46 7.9 NNE 20 28 11 15 1012.2 1012.2 0.0
25/02:00pm 29.5 27.3 16.0 44 8.4 NNE 22 32 12 17 1012.5 1012.5 0.0
25/01:30pm 29.4 25.5 14.4 40 9.1 NNE 28 33 15 18 1012.7 1012.7 0.0
25/01:00pm 31.1 26.9 13.4 34 10.6 NNE 28 41 15 22 1012.7 1012.7 0.0
25/12:30pm 31.0 25.7 12.4 32 11.0 ENE 32 41 17 22 1013.1 1013.1 0.0
25/12:00pm 30.6 25.4 11.5 30 11.1 NE 30 39 16 21 1013.5 1013.5 0.0
25/11:30am 29.8 24.1 11.8 33 10.5 ENE 33 41 18 22 1013.9 1013.9 0.0
25/11:00am 29.3 24.2 11.8 34 10.1 E 30 33 16 18 1014.2 1014.2 0.0
25/10:30am 28.6 23.8 11.6 34 9.8 E 28 32 15 17 1014.6 1014.6 0.0
25/10:00am 27.8 22.3 11.8 37 9.2 E 32 39 17 21 1015.0 1015.0 0.0
25/09:30am 26.4 20.6 10.9 38 8.7 ENE 32 41 17 22 1015.2 1015.2 0.0
25/09:00am 26.2 20.7 11.9 41 8.2 E 32 39 17 21 1015.1 1015.1 0.0
25/08:30am 25.4 19.5 11.2 41 8.0 E 33 41 18 22 1014.9 1014.9 0.0
25/08:00am 25.2 20.0 11.7 43 7.7 E 30 35 16 19 1014.7 1014.7 0.0
25/07:30am 23.8 20.3 12.1 48 6.6 E 22 30 12 16 1014.4 1014.4 0.0
25/07:00am 23.2 21.0 13.4 54 5.7 E 17 20 9 11 1014.0 1014.0 0.0
25/06:30am 22.3 21.3 15.6 66 4.0 ESE 15 17 8 9 1013.6 1013.6 0.0
25/06:00am 22.4 22.3 16.9 71 3.4 SE 13 15 7 8 1013.1 1013.1 0.0
25/05:30am 22.1 22.0 17.0 73 3.1 SE 13 17 7 9 1012.9 1012.9 0.0
25/05:00am 22.9 22.3 15.7 64 4.3 ESE 13 15 7 8 1012.9 1012.9 0.0
25/04:30am 22.7 22.7 16.3 67 3.9 E 11 11 6 6 1012.8 1012.8 0.0
25/04:00am 22.6 22.6 16.2 67 3.9 E 11 13 6 7 1012.8 1012.8 0.0
25/03:30am 23.0 22.3 15.3 62 4.6 E 13 15 7 8 1012.8 1012.8 0.0
25/03:00am 23.0 22.2 16.1 65 4.2 E 15 17 8 9 1012.9 1012.9 0.0
25/02:30am 23.5 21.7 15.5 60 4.8 E 19 20 10 11 1013.1 1013.1 0.0
25/02:00am 23.8 22.0 15.6 60 4.9 ENE 19 24 10 13 1013.2 1013.2 0.0
25/01:30am 23.7 22.4 15.7 61 4.8 E 17 20 9 11 1013.4 1013.4 0.0
25/01:00am 23.2 22.4 16.0 64 4.4 E 15 19 8 10 1013.6 1013.6 0.0
25/12:30am 23.6 21.6 15.6 61 4.8 E 20 24 11 13 1013.6 1013.6 0.0
25/12:00am 24.1 21.4 15.6 59 5.1 E 24 28 13 15 1013.7 1013.7 0.0
 
Date/Time
WST
Temp
°C
App
Temp
°C
Dew
Point
Rel
Hum
%
Delta-T
°C
Wind Press
QNH
hPa
Press
MSL
hPa
Rain
since 9 am
mm
Dir
 
Spd
km/h
Gust
km/h
Spd
kts
Gust
kts
24/11:30pm 23.6 22.4 17.1 67 4.0 ENE 19 24 10 13 1013.9 1013.9 0.0
24/11:00pm 23.7 23.2 17.9 70 3.6 ENE 17 20 9 11 1014.1 1014.1 0.0
24/10:30pm 23.9 24.0 18.3 71 3.5 ENE 15 19 8 10 1014.1 1014.1 0.0
24/10:00pm 23.8 26.2 20.1 80 2.4 NE 7 9 4 5 1014.2 1014.2 0.0
24/09:30pm 23.7 26.5 20.4 82 2.1 ENE 6 7 3 4 1014.1 1014.1 0.0
24/09:00pm 24.4 27.0 20.1 77 2.8 NNE 6 7 3 4 1014.0 1014.0 0.0
24/08:30pm 23.9 26.4 19.8 78 2.6 NNE 6 7 3 4 1013.8 1013.8 0.0
24/08:00pm 23.9 26.2 19.8 78 2.6 N 7 9 4 5 1013.5 1013.5 0.0
24/07:30pm 24.9 27.1 17.4 63 4.7 NNW 2 7 1 4 1013.1 1013.1 0.0
24/07:00pm 24.4 27.0 17.6 66 4.2 CALM 0 0 0 0 1012.9 1012.9 0.0
24/06:30pm 24.9 26.4 17.6 64 4.6 NNW 6 7 3 4 1012.7 1012.7 0.0
24/06:00pm 25.5 26.9 17.4 61 5.1 NNW 6 7 3 4 1012.3 1012.3 0.0
24/05:30pm 26.5 27.2 17.0 56 5.9 NNW 9 13 5 7 1012.2 1012.2 0.0
24/05:00pm 27.3 27.4 17.5 55 6.2 NNW 13 15 7 8 1012.1 1012.1 0.0
24/04:30pm 27.2 27.4 17.7 56 6.0 NW 13 15 7 8 1012.1 1012.1 0.0
24/04:00pm 28.9 30.4 15.8 45 8.1 S 2 7 1 4 1012.2 1012.2 0.0
24/03:30pm 28.6 29.3 16.2 47 7.7 E 7 9 4 5 1012.3 1012.3 0.0
24/03:00pm 28.5 28.9 16.4 48 7.5 NNE 9 13 5 7 1012.3 1012.3 0.0
24/02:30pm 27.7 27.3 16.3 49 7.1 N 13 15 7 8 1012.4 1012.4 0.0
24/02:00pm 28.4 27.4 14.6 43 8.3 ENE 13 15 7 8 1012.5 1012.5 0.0
24/01:30pm 29.0 26.8 14.8 42 8.6 ENE 20 26 11 14 1012.6 1012.6 0.0
24/01:00pm 29.3 27.0 14.7 41 8.9 ENE 20 24 11 13 1012.9 1012.9 0.0
24/12:30pm 28.9 27.0 15.8 45 8.1 ENE 20 28 11 15 1013.4 1013.4 0.0
24/12:00pm 28.1 24.7 13.6 41 8.6 E 24 30 13 16 1013.9 1013.9 0.0
24/11:30am 28.1 24.7 14.7 44 8.1 E 26 32 14 17 1014.3 1014.3 0.0
24/11:00am 26.4 23.1 15.1 49 6.8 E 26 33 14 18 1014.7 1014.7 0.0
24/10:30am 26.6 22.5 15.0 49 7.0 E 30 41 16 22 1014.9 1014.9 0.0
24/10:00am 25.0 21.3 13.9 50 6.5 ESE 26 32 14 17 1015.1 1015.1 0.0
24/09:30am 23.9 22.0 15.7 60 5.0 SE 20 26 11 14 1015.2 1015.2 0.0
24/09:00am 22.6 20.8 15.9 66 4.0 SE 20 24 11 13 1015.3 1015.3 0.0
24/08:30am 22.1 20.2 15.7 67 3.8 SE 20 24 11 13 1015.4 1015.4 0.0
24/08:00am 21.0 19.0 15.5 71 3.3 ESE 20 26 11 14 1015.2 1015.2 0.0
24/07:30am 20.9 19.0 15.7 72 3.1 SE 20 24 11 13 1014.8 1014.8 0.0
24/07:00am 19.6 18.7 15.9 79 2.2 ESE 15 17 8 9 1014.6 1014.6 0.0
24/06:30am 19.1 18.3 16.1 83 1.8 ESE 15 17 8 9 1014.3 1014.3 0.0
24/06:00am 19.5 18.4 16.3 82 1.9 ESE 17 19 9 10 1014.0 1014.0 0.0
24/05:30am 19.9 18.1 15.5 76 2.6 ESE 19 24 10 13 1013.8 1013.8 0.0
24/05:00am 21.2 19.1 15.3 69 3.5 ENE 20 26 11 14 1013.5 1013.5 0.0
24/04:30am 21.6 18.2 14.7 65 4.1 ENE 26 32 14 17 1013.5 1013.5 0.0
24/04:00am 22.0 18.2 14.6 63 4.4 ENE 28 35 15 19 1013.4 1013.4 0.0
24/03:30am 22.2 18.6 15.3 65 4.1 ENE 28 33 15 18 1013.8 1013.8 0.0
24/03:00am 22.3 21.2 17.4 74 3.0 NE 19 28 10 15 1013.6 1013.6 0.0
24/02:30am 22.1 22.4 19.5 85 1.7 ENE 17 20 9 11 1013.5 1013.5 0.0
24/02:00am 22.0 22.4 19.9 88 1.3 ENE 17 20 9 11 1013.4 1013.4 0.0
24/01:30am 22.2 22.1 19.6 85 1.7 ENE 19 20 10 11 1013.4 1013.4 0.0
24/01:00am 21.8 21.3 19.2 85 1.6 E 20 26 11 14 1013.3 1013.3 0.0
24/12:30am 21.6 20.2 17.0 75 2.8 ESE 20 22 11 12 1013.2 1013.2 0.0
24/12:00am 22.3 20.9 16.6 70 3.5 SE 19 22 10 12 1013.0 1013.0 0.0
 
Date/Time
WST
Temp
°C
App
Temp
°C
Dew
Point
Rel
Hum
%
Delta-T
°C
Wind Press
QNH
hPa
Press
MSL
hPa
Rain
since 9 am
mm
Dir
 
Spd
km/h
Gust
km/h
Spd
kts
Gust
kts
23/11:30pm 22.2 21.8 17.1 73 3.1 SE 15 19 8 10 1013.1 1013.1 0.0
23/11:00pm 22.7 22.3 17.2 71 3.4 SSE 15 19 8 10 1013.2 1013.2 0.0
23/10:30pm 22.8 23.1 17.9 74 3.1 SSE 13 17 7 9 1013.4 1013.4 0.0
23/10:00pm 22.5 23.4 18.5 78 2.5 S 11 15 6 8 1013.5 1013.5 0.0
23/09:30pm 22.7 23.2 18.3 76 2.8 S 13 15 7 8 1013.4 1013.4 0.0
23/09:00pm 23.2 23.6 18.1 73 3.2 SSW 13 15 7 8 1013.1 1013.1 0.0
23/08:30pm 23.5 23.2 18.2 72 3.3 SSW 17 19 9 10 1012.9 1012.9 0.0
23/08:00pm 23.5 23.3 18.4 73 3.2 SW 17 20 9 11 1012.6 1012.6 0.0
23/07:30pm 23.8 23.6 18.4 72 3.4 SW 17 20 9 11 1012.4 1012.4 0.0
23/07:00pm 24.2 23.0 18.4 70 3.7 SW 22 28 12 15 1012.0 1012.0 0.0
23/06:30pm 24.3 23.5 18.5 70 3.7 SW 20 24 11 13 1011.9 1011.9 0.0
23/06:00pm 24.6 23.9 18.3 68 4.0 WSW 19 24 10 13 1011.8 1011.8 0.0
23/05:30pm 25.7 25.2 17.9 62 4.9 WSW 17 24 9 13 1011.4 1011.4 0.0
23/05:00pm 26.2 25.1 17.3 58 5.6 W 19 24 10 13 1011.2 1011.2 0.0
23/04:30pm 25.8 23.9 16.6 56 5.7 W 22 28 12 15 1011.2 1011.2 0.0
23/04:00pm 26.4 25.1 16.9 56 5.9 W 19 24 10 13 1011.5 1011.5 0.0
23/03:30pm 26.2 25.0 17.0 57 5.7 WNW 19 24 10 13 1011.6 1011.6 0.0
23/03:00pm 26.3 25.3 16.5 54 6.1 WNW 17 22 9 12 1011.7 1011.7 0.0
23/02:30pm 27.0 26.5 16.9 54 6.3 NW 15 20 8 11 1011.7 1011.7 0.0
23/02:00pm 26.9 26.5 16.2 52 6.6 NW 13 19 7 10 1011.9 1011.9 0.0
23/01:30pm 26.2 26.2 16.2 54 6.1 WNW 11 15 6 8 1012.3 1012.3 0.0
23/01:00pm 26.4 26.2 15.8 52 6.5 WNW 11 17 6 9 1012.4 1012.4 0.0
23/12:30pm 26.4 27.2 15.8 52 6.5 S 6 9 3 5 1012.9 1012.9 0.0
23/12:00pm 26.0 25.8 14.8 50 6.7 E 9 15 5 8 1013.4 1013.4 0.0
23/11:30am 26.2 25.2 14.6 48 6.9 ENE 13 17 7 9 1013.8 1013.8 0.0
23/11:00am 24.9 24.1 15.0 54 5.9 SE 13 19 7 10 1014.0 1014.0 0.0
23/10:30am 24.0 22.9 15.2 58 5.3 ESE 15 20 8 11 1014.3 1014.3 0.0
23/10:00am 22.8 21.5 14.9 61 4.7 ESE 15 17 8 9 1014.7 1014.7 0.0
23/09:30am 21.9 20.3 15.0 65 4.1 SE 17 20 9 11 1014.6 1014.6 0.0
23/09:00am 21.6 19.4 14.3 63 4.3 SE 19 22 10 12 1014.3 1014.3 0.0
23/08:30am 20.5 18.1 14.4 68 3.6 SE 20 24 11 13 1014.1 1014.1 0.0
23/08:00am 19.2 16.8 13.8 71 3.1 SE 19 24 10 13 1014.2 1014.2 0.0
23/07:30am 18.3 15.6 13.6 74 2.7 SE 20 26 11 14 1013.9 1013.9 0.0
23/07:00am 17.4 14.7 13.5 78 2.2 SSE 20 24 11 13 1013.8 1013.8 0.0
23/06:30am 17.1 14.4 13.6 80 2.0 SSE 20 26 11 14 1013.6 1013.6 0.0
23/06:00am 17.0 14.6 13.9 82 1.8 SSE 19 22 10 12 1013.6 1013.6 0.0
23/05:30am 17.4 15.1 14.1 81 1.9 SSE 19 20 10 11 1013.3 1013.3 0.0
23/05:00am 17.6 15.7 14.1 80 2.0 SSE 17 20 9 11 1012.9 1012.9 0.0
23/04:30am 18.1 15.8 14.2 78 2.2 SE 19 20 10 11 1012.6 1012.6 0.0
23/04:00am 18.2 16.3 14.3 78 2.2 SE 17 20 9 11 1012.5 1012.5 0.0
23/03:30am 18.7 15.9 14.2 75 2.6 SE 22 28 12 15 1012.5 1012.5 0.0
23/03:00am 18.9 16.5 14.4 75 2.6 SE 20 26 11 14 1012.6 1012.6 0.0
23/02:30am 19.3 17.0 14.6 74 2.7 SE 20 26 11 14 1012.6 1012.6 0.0
23/02:00am 19.3 17.8 15.2 77 2.4 ESE 17 19 9 10 1012.6 1012.6 0.0
23/01:30am 19.7 17.8 15.1 75 2.7 ESE 19 22 10 12 1012.7 1012.7 0.0
23/01:00am 20.0 18.1 15.2 74 2.8 ESE 19 24 10 13 1012.9 1012.9 0.0
23/12:30am 20.4 17.8 15.0 71 3.2 SE 22 28 12 15 1012.9 1012.9 0.0
23/12:00am 20.6 17.5 14.5 68 3.6 SE 24 28 13 15 1012.6 1012.6 0.0

Other Formats:

Comma delimited format used in spreadsheet applications
http://www.bom.gov.au/fwo/IDW60801/IDW60801.95305.axf

JavaScript Object Notation format (JSON) in row-major order
http://www.bom.gov.au/fwo/IDW60801/IDW60801.95305.json